Terminal Aerodrome Forecast
Issued by NWS Wilmington, OH

Current Version | Previous Version | Graphics & Text | Print | Product List | Glossary On
Versions: 1 2 3 4 5 6 7 8 9 10 11 12 13 14 15 16 17 18 19 20 21 22 23 24 25 26 27
498
FTUS41 KILN 281128
TAFILN
TAF
KILN 281128Z 2812/2912 04009KT P6SM SCT015 BKN040
      TEMPO 2812/2814 4SM BR BKN005 OVC015
     FM281900 01013G20KT P6SM BKN040
     FM290100 02011KT P6SM SCT010
      TEMPO 2908/2912 BKN022=

USA.gov is the U.S. government's official web portal to all federal, state and local government web resources and services.